Burley in Wharfedale, United Kingdom
Current Conditions -  °F | °C
As of 4:50 PM on Tuesday 27 Jan 2015 (Local Time) from EGNM Reporting Station
Broken Clouds Broken Clouds  
Wind Chill: 33°   Ceiling: 1800
Heat Index: 41°   Visibility: 6mi
Dew Point: 37°   Wind: 15mph
Humidity: 87%   Direction: 240°WSW
Pressure: 30.09"   Gusts: 26mph
Location:  53.91°N, 1.76°W
Report Text: EGNM 271650Z 24013G23KT 210V280 9999 FEW006 BKN018 05/03 Q1019
Loading
Personal Weather Stations






























Interactive Weather Map New forecast layout! Learn more

10-Day Weather Forecast

Advertisements
Track Severe Weather on mobile